createdAt,value
2023-08-24T05:04:18.815Z,9.55
2023-08-24T05:07:22.170Z,9.70
2023-08-24T05:10:25.418Z,9.03
2023-08-24T05:13:28.478Z,9.20
2023-08-24T05:16:31.586Z,9.23
2023-08-24T05:19:36.119Z,8.95
2023-08-24T05:22:39.623Z,8.98
2023-08-24T05:25:45.808Z,9.20
2023-08-24T05:28:49.462Z,8.60
2023-08-24T05:31:52.556Z,8.68
2023-08-24T05:34:57.050Z,8.60
2023-08-24T05:38:00.742Z,9.05
2023-08-24T05:41:04.079Z,8.43
2023-08-24T05:44:07.161Z,8.70
2023-08-24T05:47:13.800Z,9.20
2023-08-24T05:50:18.673Z,8.80
2023-08-24T05:53:22.030Z,9.30
2023-08-24T05:56:25.230Z,9.07
2023-08-24T05:59:28.353Z,7.60
2023-08-24T06:02:53.171Z,8.45
2023-08-24T06:06:03.949Z,7.47
2023-08-24T06:09:09.504Z,7.85
2023-08-24T06:12:13.756Z,7.67
2023-08-24T06:15:20.444Z,8.10
2023-08-24T06:18:23.824Z,7.88
2023-08-24T06:21:29.014Z,7.40
2023-08-24T06:24:32.341Z,7.18
2023-08-24T06:27:35.533Z,7.20
2023-08-24T06:30:40.609Z,7.47
2023-08-24T06:33:44.697Z,7.40
2023-08-24T06:37:25.335Z,7.25
2023-08-24T06:40:30.679Z,7.30
2023-08-24T06:43:33.830Z,7.50
2023-08-24T06:46:39.551Z,7.00
2023-08-24T06:49:45.109Z,7.25
2023-08-24T06:52:48.467Z,6.88
2023-08-24T06:55:57.833Z,7.03
2023-08-24T06:59:01.671Z,7.20
2023-08-24T07:02:05.600Z,7.63
2023-08-24T07:05:10.120Z,7.38
2023-08-24T07:08:16.150Z,6.72
2023-08-24T07:11:23.342Z,8.05
2023-08-24T07:14:26.472Z,6.97
2023-08-24T07:17:33.282Z,6.57
2023-08-24T07:20:37.076Z,6.43
2023-08-24T07:23:49.969Z,6.78
2023-08-24T07:26:54.608Z,6.85
2023-08-24T07:30:02.375Z,6.40
2023-08-24T07:33:24.426Z,6.43
2023-08-24T07:37:23.637Z,6.30
2023-08-24T07:40:34.497Z,6.82
2023-08-24T07:43:54.054Z,5.97
2023-08-24T07:47:00.904Z,6.60
2023-08-24T07:50:50.642Z,5.78
2023-08-24T07:53:53.968Z,6.15
2023-08-24T07:56:57.124Z,6.00
2023-08-24T08:00:02.333Z,5.88
2023-08-24T08:03:07.423Z,5.97
2023-08-24T08:06:12.003Z,5.78
2023-08-24T08:09:15.248Z,6.10
2023-08-24T08:12:19.769Z,6.13
2023-08-24T08:15:27.725Z,6.38
2023-08-24T08:18:33.081Z,6.20
2023-08-24T08:21:36.356Z,6.50
2023-08-24T08:24:40.580Z,5.95
2023-08-24T08:27:43.796Z,6.38
2023-08-24T08:30:52.247Z,6.55
2023-08-24T08:33:58.557Z,6.20
2023-08-24T08:37:04.353Z,6.50
2023-08-24T08:40:11.886Z,6.70
2023-08-24T08:43:15.203Z,7.03
2023-08-24T08:46:19.784Z,6.95
2023-08-24T08:49:27.121Z,6.73
2023-08-24T08:52:31.739Z,6.50
2023-08-24T08:55:36.834Z,6.57
2023-08-24T08:58:44.659Z,6.50
2023-08-24T09:01:53.622Z,7.22
2023-08-24T09:05:01.859Z,6.03
2023-08-24T09:08:29.355Z,6.50
2023-08-24T09:11:36.728Z,6.35
2023-08-24T09:14:50.106Z,6.50
2023-08-24T09:19:18.693Z,6.60
2023-08-24T09:22:26.396Z,6.57
2023-08-24T09:25:47.609Z,6.28
2023-08-24T09:29:16.147Z,6.70
2023-08-24T09:32:29.636Z,6.82
2023-08-24T09:35:42.105Z,6.55
2023-08-24T09:42:22.948Z,6.03
2023-08-24T09:45:32.167Z,7.13
2023-08-24T09:48:36.021Z,7.28
2023-08-24T09:51:42.618Z,6.05
2023-08-24T09:54:51.508Z,6.50
2023-08-24T09:58:01.393Z,6.63
2023-08-24T10:02:20.393Z,6.70
2023-08-24T10:05:44.115Z,6.20
2023-08-24T10:09:10.125Z,5.93
2023-08-24T10:12:24.130Z,6.33
2023-08-24T10:15:31.341Z,6.45
2023-08-24T10:18:36.190Z,6.38
2023-08-24T10:21:43.486Z,6.35
2023-08-24T10:24:47.399Z,6.40
2023-08-24T10:28:01.857Z,6.17
2023-08-24T10:31:06.898Z,6.72
2023-08-24T10:34:17.429Z,6.90
2023-08-24T10:37:36.179Z,6.40
2023-08-24T10:41:00.980Z,6.20
2023-08-24T10:45:32.113Z,6.60
2023-08-24T10:48:40.615Z,6.32
2023-08-24T10:51:48.890Z,6.72
2023-08-24T10:54:54.033Z,6.55
2023-08-24T10:58:04.310Z,6.90
2023-08-24T11:01:07.740Z,6.40
2023-08-24T11:04:14.452Z,6.15
2023-08-24T11:07:18.727Z,6.38
2023-08-24T11:10:25.963Z,6.10
2023-08-24T11:13:32.300Z,6.43
2023-08-24T11:16:41.759Z,6.30
2023-08-24T11:19:51.377Z,5.85
2023-08-24T11:22:58.115Z,6.20
2023-08-24T11:26:02.960Z,5.85
2023-08-24T11:29:07.902Z,5.88
2023-08-24T11:32:12.445Z,5.83
2023-08-24T11:35:19.193Z,5.65
2023-08-24T11:38:25.811Z,5.80
2023-08-24T11:41:35.766Z,6.00
2023-08-24T11:44:48.652Z,5.45
2023-08-24T11:47:52.074Z,5.30
2023-08-24T11:50:56.984Z,5.60
2023-08-24T11:54:03.374Z,5.70
2023-08-24T11:57:09.636Z,5.20
2023-08-24T12:00:15.501Z,5.47
2023-08-24T12:03:19.201Z,5.70
2023-08-24T12:06:24.611Z,6.63
2023-08-24T12:09:31.718Z,5.80
2023-08-24T12:12:35.104Z,5.88
2023-08-24T12:15:39.542Z,6.40
2023-08-24T12:18:50.567Z,6.17
2023-08-24T12:21:55.097Z,5.95
2023-08-24T12:25:13.009Z,6.13
2023-08-24T12:28:21.040Z,5.82
2023-08-24T12:31:32.010Z,6.38
2023-08-24T12:34:37.066Z,5.83
2023-08-24T12:37:42.105Z,6.10
2023-08-24T12:40:46.633Z,5.68
2023-08-24T12:43:49.820Z,6.40
2023-08-24T12:46:53.096Z,6.60
2023-08-24T12:49:56.750Z,6.43
2023-08-24T12:53:03.377Z,6.07
2023-08-24T12:56:06.770Z,6.72
2023-08-24T12:59:10.261Z,6.55
2023-08-24T13:02:25.017Z,6.68
2023-08-24T13:05:32.902Z,6.27
2023-08-24T13:08:39.590Z,6.60
2023-08-24T13:11:42.624Z,6.50
2023-08-24T13:14:45.710Z,6.35
2023-08-24T13:17:49.023Z,5.95
2023-08-24T13:20:52.541Z,6.50
2023-08-24T13:23:57.013Z,6.68
2023-08-24T13:27:00.646Z,6.57
2023-08-24T13:30:06.451Z,6.50
2023-08-24T13:33:09.920Z,7.00
2023-08-24T13:36:13.057Z,7.07
2023-08-24T13:39:19.839Z,6.93
2023-08-24T13:42:22.973Z,7.40
2023-08-24T13:45:41.315Z,6.95
2023-08-24T13:48:44.558Z,7.28
2023-08-24T13:51:48.000Z,6.83
2023-08-24T13:55:07.079Z,6.70
2023-08-24T13:58:15.255Z,6.80
2023-08-24T14:01:18.722Z,6.55
2023-08-24T14:04:22.981Z,6.95
2023-08-24T14:07:26.220Z,6.77
2023-08-24T14:10:31.118Z,7.18
2023-08-24T14:13:35.606Z,7.53
2023-08-24T14:16:38.905Z,6.80
2023-08-24T14:19:42.164Z,7.18
2023-08-24T14:22:46.622Z,6.60
2023-08-24T14:25:51.195Z,6.95
2023-08-24T14:28:55.995Z,7.35
2023-08-24T14:31:59.256Z,6.93
2023-08-24T14:35:02.508Z,7.07
2023-08-24T14:38:05.955Z,7.07
2023-08-24T14:41:11.962Z,6.82
2023-08-24T14:44:15.348Z,7.35
2023-08-24T14:47:19.603Z,6.97
2023-08-24T14:50:25.003Z,6.95
2023-08-24T14:53:28.907Z,7.03
2023-08-24T14:56:33.339Z,6.50
2023-08-24T14:59:37.645Z,6.85
2023-08-24T15:02:43.093Z,6.93
2023-08-24T15:05:47.723Z,6.95
